Seabourn Pride — C6FR5 — position and weather

sailwx.info

Track history (hours):
 
Tides and Currents Weather Stations Pressure Air Temp Water Temp Dewpoint Dewpoint Depression Visibility Wind Speed Wind Dir Waves Ship Positions

Seabourn Pride

Operator: Cunard Seabourn

Last reported at 2019-Feb-16 01:05 UTC. Time now 2019-Feb-16 04:19 UTC.
Position N 18°37' W 064°57'.

Length 134 m; draft 5.7 m.

Type: Passenger vessel. MMSI: 311084000.

Date/timePositionNaut miles runAvg speedWind from/ knotsBaromVisibWave heightAir tempDewpointWater temp
2019-Feb-16 01:05N 18°37' W 064°57'5 8.7
2019-Feb-16 00:32N 18°37' W 064°52'1 8.9
2019-Feb-16 00:27N 18°37' W 064°51'6 8.8
2019-Feb-15 23:50N 18°36' W 064°45'3 9.0
2019-Feb-15 23:27N 18°35' W 064°42'4 7.5
2019-Feb-15 22:58N 18°35' W 064°38'4 7.5
2019-Feb-15 22:29N 18°34' W 064°34'4 8.2
2019-Feb-15 21:59N 18°31' W 064°32'4 7.7
2019-Feb-15 21:27N 18°28' W 064°28'1 0.1
2019-Feb-15 10:46N 18°27' W 064°27'2 7.1
2019-Feb-15 10:29N 18°26' W 064°28'4 8.8
2019-Feb-15 10:00N 18°22' W 064°25'51 9.8
2019-Feb-15 04:49N 17°58' W 063°38'310.1
2019-Feb-15 04:29N 17°56' W 063°35'610.0
2019-Feb-15 03:56N 17°53' W 063°30'610.0
2019-Feb-15 03:23N 17°51' W 063°25'410.0
2019-Feb-15 03:00N 17°49' W 063°22'510.0
2019-Feb-15 02:30N 17°47' W 063°17'510.0
2019-Feb-15 02:00N 17°44' W 063°12'510.2
2019-Feb-15 01:29N 17°42' W 063°07'610.2
2019-Feb-15 00:56N 17°40' W 063°02'510.4
2019-Feb-15 00:30N 17°37' W 062°58'4 9.2
2019-Feb-15 00:00N 17°34' W 062°55'4 8.4
2019-Feb-14 23:29N 17°30' W 062°54'15 8.9
2019-Feb-14 21:45N 17°16' W 062°46'0 0.0
2019-Feb-14 10:29N 17°16' W 062°46'14 5.5
2019-Feb-14 08:02N 17°27' W 062°54'2 6.1
2019-Feb-14 07:46N 17°29' W 062°54'7 6.1
2019-Feb-14 06:35N 17°36' W 062°54'2 6.0
2019-Feb-14 06:18N 17°38' W 062°54'2 5.9
2019-Feb-14 06:00N 17°40' W 062°54'3 6.1
2019-Feb-14 05:29N 17°43' W 062°54'3 6.0
2019-Feb-14 05:00N 17°46' W 062°54'3 6.0
2019-Feb-14 04:27N 17°49' W 062°54'3 5.8
2019-Feb-14 04:00N 17°52' W 062°54'3 0.2
2019-Feb-13 12:51N 17°54' W 062°52'2 0.7
2019-Feb-13 10:48N 17°54' W 062°54'3 9.2
2019-Feb-13 10:30N 17°51' W 062°54'5 9.6
2019-Feb-13 10:00N 17°46' W 062°54'610.9
2019-Feb-13 09:29N 17°41' W 062°54'711.4
2019-Feb-13 08:50N 17°33' W 062°54'611.3
2019-Feb-13 08:19N 17°27' W 062°54'411.6
2019-Feb-13 08:00N 17°23' W 062°55'2811.9
2019-Feb-13 05:38N 16°59' W 062°39'203 6.2
2019-Feb-11 21:01N 14°01' W 060°60'7 0.6
2019-Feb-11 09:02N 14°00' W 061°06'  
2019-Feb-07 06:07N 14°48' W 061°14'205315.0
2019-Feb-07 05:28N 14°29' W 064°45'201173.9
2019-Feb-07 04:19N 14°40' W 061°17'  
Track history (hours):
 
Tides and Currents Weather Stations Pressure Air Temp Water Temp Dewpoint Dewpoint Depression Visibility Wind Speed Wind Dir Waves Ship Positions

Seabourn Pride

Operator: Cunard Seabourn

Last reported at 2019-Feb-16 01:05 UTC. Time now 2019-Feb-16 04:19 UTC.
Position N 18°37' W 064°57'.

Length 134 m; draft 5.7 m.

Type: Passenger vessel. MMSI: 311084000.

Date/timePositionNaut miles runAvg speedWind from/ knotsBaromVisibWave heightAir tempDewpointWater temp
2019-Feb-16 01:05N 18°37' W 064°57'5 8.7
2019-Feb-16 00:32N 18°37' W 064°52'1 8.9
2019-Feb-16 00:27N 18°37' W 064°51'6 8.8
2019-Feb-15 23:50N 18°36' W 064°45'3 9.0
2019-Feb-15 23:27N 18°35' W 064°42'4 7.5
2019-Feb-15 22:58N 18°35' W 064°38'4 7.5
2019-Feb-15 22:29N 18°34' W 064°34'4 8.2
2019-Feb-15 21:59N 18°31' W 064°32'4 7.7
2019-Feb-15 21:27N 18°28' W 064°28'1 0.1
2019-Feb-15 10:46N 18°27' W 064°27'2 7.1
2019-Feb-15 10:29N 18°26' W 064°28'4 8.8
2019-Feb-15 10:00N 18°22' W 064°25'51 9.8
2019-Feb-15 04:49N 17°58' W 063°38'310.1
2019-Feb-15 04:29N 17°56' W 063°35'610.0
2019-Feb-15 03:56N 17°53' W 063°30'610.0
2019-Feb-15 03:23N 17°51' W 063°25'410.0
2019-Feb-15 03:00N 17°49' W 063°22'510.0
2019-Feb-15 02:30N 17°47' W 063°17'510.0
2019-Feb-15 02:00N 17°44' W 063°12'510.2
2019-Feb-15 01:29N 17°42' W 063°07'610.2
2019-Feb-15 00:56N 17°40' W 063°02'510.4
2019-Feb-15 00:30N 17°37' W 062°58'4 9.2
2019-Feb-15 00:00N 17°34' W 062°55'4 8.4
2019-Feb-14 23:29N 17°30' W 062°54'15 8.9
2019-Feb-14 21:45N 17°16' W 062°46'0 0.0
2019-Feb-14 10:29N 17°16' W 062°46'14 5.5
2019-Feb-14 08:02N 17°27' W 062°54'2 6.1
2019-Feb-14 07:46N 17°29' W 062°54'7 6.1
2019-Feb-14 06:35N 17°36' W 062°54'2 6.0
2019-Feb-14 06:18N 17°38' W 062°54'2 5.9
2019-Feb-14 06:00N 17°40' W 062°54'3 6.1
2019-Feb-14 05:29N 17°43' W 062°54'3 6.0
2019-Feb-14 05:00N 17°46' W 062°54'3 6.0
2019-Feb-14 04:27N 17°49' W 062°54'3 5.8
2019-Feb-14 04:00N 17°52' W 062°54'3 0.2
2019-Feb-13 12:51N 17°54' W 062°52'2 0.7
2019-Feb-13 10:48N 17°54' W 062°54'3 9.2
2019-Feb-13 10:30N 17°51' W 062°54'5 9.6
2019-Feb-13 10:00N 17°46' W 062°54'610.9
2019-Feb-13 09:29N 17°41' W 062°54'711.4
2019-Feb-13 08:50N 17°33' W 062°54'611.3
2019-Feb-13 08:19N 17°27' W 062°54'411.6
2019-Feb-13 08:00N 17°23' W 062°55'2811.9
2019-Feb-13 05:38N 16°59' W 062°39'203 6.2
2019-Feb-11 21:01N 14°01' W 060°60'7 0.6
2019-Feb-11 09:02N 14°00' W 061°06'  
2019-Feb-07 06:07N 14°48' W 061°14'205315.0
2019-Feb-07 05:28N 14°29' W 064°45'201173.9
2019-Feb-07 04:19N 14°40' W 061°17'  

Dump ship's entire track history